createdAt,value
2018-02-27T00:00:35.297Z,71.17
2018-02-27T00:03:03.830Z,71.09
2018-02-27T00:05:32.243Z,70.54
2018-02-27T00:08:01.396Z,69.47
2018-02-27T00:10:29.800Z,69.17
2018-02-27T00:12:58.202Z,67.42
2018-02-27T00:15:27.407Z,66.58
2018-02-27T00:17:56.601Z,65.80
2018-02-27T00:20:25.752Z,65.39
2018-02-27T00:22:54.155Z,65.05
2018-02-27T00:25:23.368Z,65.26
2018-02-27T00:27:51.777Z,65.00
2018-02-27T00:30:20.159Z,64.48
2018-02-27T00:32:48.634Z,64.55
2018-02-27T00:35:17.044Z,65.04
2018-02-27T00:37:45.424Z,64.60
2018-02-27T00:40:13.914Z,64.44
2018-02-27T00:42:42.299Z,63.87
2018-02-27T00:45:10.708Z,64.34
2018-02-27T00:47:39.896Z,63.52
2018-02-27T00:50:08.292Z,63.30
2018-02-27T00:52:36.794Z,63.21
2018-02-27T00:55:05.948Z,63.25
2018-02-27T00:57:34.328Z,63.52
2018-02-27T01:00:03.460Z,63.11
2018-02-27T01:02:31.870Z,63.24
2018-02-27T01:05:00.268Z,63.39
2018-02-27T01:07:28.640Z,63.42
2018-02-27T01:09:57.085Z,63.28
2018-02-27T01:12:26.240Z,63.06
2018-02-27T01:14:54.636Z,61.35
2018-02-27T01:17:23.042Z,60.37
2018-02-27T01:19:52.292Z,59.59
2018-02-27T01:22:20.660Z,59.38
2018-02-27T01:24:49.039Z,58.18
2018-02-27T01:27:17.431Z,57.95
2018-02-27T01:29:45.923Z,57.35
2018-02-27T01:32:14.447Z,56.73
2018-02-27T01:34:43.587Z,56.92
2018-02-27T01:37:11.959Z,57.07
2018-02-27T01:39:40.346Z,57.50
2018-02-27T01:42:08.740Z,56.88
2018-02-27T01:44:37.118Z,56.95
2018-02-27T01:47:05.500Z,56.84
2018-02-27T01:49:33.895Z,57.34
2018-02-27T01:52:02.357Z,57.58
2018-02-27T01:54:30.756Z,57.77
2018-02-27T01:56:59.130Z,57.54
2018-02-27T01:59:27.529Z,57.78
2018-02-27T02:01:55.913Z,58.12
2018-02-27T02:04:24.287Z,58.03
2018-02-27T02:06:52.681Z,57.45
2018-02-27T02:09:21.207Z,57.46
2018-02-27T02:11:50.462Z,57.26
2018-02-27T02:14:18.849Z,57.28
2018-02-27T02:16:47.275Z,57.83
2018-02-27T02:19:15.779Z,57.61
2018-02-27T02:21:44.271Z,58.00
2018-02-27T02:24:12.651Z,58.06
2018-02-27T02:26:41.040Z,58.34
2018-02-27T02:29:09.452Z,58.97
2018-02-27T02:31:37.863Z,59.06
2018-02-27T02:34:07.034Z,59.11
2018-02-27T02:36:35.436Z,59.26
2018-02-27T02:39:04.605Z,59.50
2018-02-27T02:41:33.001Z,59.09
2018-02-27T02:44:02.201Z,59.18
2018-02-27T02:46:30.596Z,59.89
2018-02-27T02:48:59.880Z,59.56
2018-02-27T02:51:28.302Z,59.29
2018-02-27T02:53:56.695Z,59.89
2018-02-27T02:56:25.108Z,59.76
2018-02-27T02:58:53.563Z,60.20
2018-02-27T03:01:22.003Z,60.14
2018-02-27T03:03:51.144Z,60.06
2018-02-27T03:06:20.512Z,60.02
2018-02-27T03:08:49.672Z,60.20
2018-02-27T03:11:18.223Z,60.71
2018-02-27T03:13:46.612Z,61.05
2018-02-27T03:16:15.008Z,61.66
2018-02-27T03:18:43.376Z,61.26
2018-02-27T03:21:11.886Z,61.74
2018-02-27T03:23:40.414Z,61.95
2018-02-27T03:26:10.015Z,62.36
2018-02-27T03:28:39.200Z,61.35
2018-02-27T03:31:07.609Z,61.12
2018-02-27T03:33:36.832Z,61.10
2018-02-27T03:36:05.325Z,60.81
2018-02-27T03:38:33.781Z,60.78
2018-02-27T03:41:02.183Z,60.06
2018-02-27T03:43:30.712Z,60.63
2018-02-27T03:45:59.268Z,60.63
2018-02-27T03:48:27.711Z,60.41
2018-02-27T03:50:56.095Z,61.50
2018-02-27T03:53:24.468Z,62.09
2018-02-27T03:55:53.036Z,61.70
2018-02-27T03:58:22.387Z,62.21
2018-02-27T04:00:50.773Z,62.07
2018-02-27T04:03:19.163Z,61.88
2018-02-27T04:05:47.565Z,62.29
2018-02-27T04:08:16.000Z,62.18
2018-02-27T04:10:45.116Z,63.01
2018-02-27T04:13:13.596Z,62.90
2018-02-27T04:15:42.271Z,63.20
2018-02-27T04:18:10.638Z,63.42
2018-02-27T04:20:39.016Z,63.55
2018-02-27T04:23:07.413Z,64.07
2018-02-27T04:25:35.773Z,64.43
2018-02-27T04:28:04.971Z,64.48
2018-02-27T04:30:34.147Z,64.78
2018-02-27T04:33:03.305Z,64.91
2018-02-27T04:35:31.741Z,64.87
2018-02-27T04:38:00.943Z,65.66
2018-02-27T04:40:30.259Z,65.67
2018-02-27T04:42:58.736Z,66.30
2018-02-27T04:45:27.872Z,65.93
2018-02-27T04:47:56.284Z,66.38
2018-02-27T04:50:24.690Z,66.84
2018-02-27T04:52:53.854Z,66.54
2018-02-27T04:55:22.283Z,66.28
2018-02-27T04:57:51.436Z,66.12
2018-02-27T05:00:19.836Z,66.44
2018-02-27T05:02:48.976Z,66.52
2018-02-27T05:05:17.453Z,66.86
2018-02-27T05:07:46.049Z,67.22
2018-02-27T05:10:14.443Z,67.32
2018-02-27T05:12:42.830Z,67.74
2018-02-27T05:15:11.226Z,67.84
2018-02-27T05:17:39.627Z,68.24
2018-02-27T05:20:08.265Z,68.22
2018-02-27T05:22:36.666Z,68.12
2018-02-27T05:25:05.039Z,68.37
2018-02-27T05:27:33.446Z,68.88
2018-02-27T05:30:01.999Z,68.99
2018-02-27T05:32:31.297Z,69.24
2018-02-27T05:34:59.761Z,69.36
2018-02-27T05:37:28.134Z,69.66
2018-02-27T05:39:57.307Z,69.79
2018-02-27T05:42:25.819Z,69.94
2018-02-27T05:44:54.986Z,70.20
2018-02-27T05:47:23.380Z,70.29
2018-02-27T05:49:51.917Z,70.30
2018-02-27T05:52:20.448Z,70.49
2018-02-27T05:54:48.847Z,70.28
2018-02-27T05:57:18.037Z,70.78
2018-02-27T05:59:47.254Z,70.60
2018-02-27T06:02:16.404Z,71.01
2018-02-27T06:04:44.803Z,71.19
2018-02-27T06:07:13.177Z,71.18
2018-02-27T06:09:41.703Z,71.12
2018-02-27T06:12:10.107Z,70.51
2018-02-27T06:14:38.526Z,70.67
2018-02-27T06:17:07.705Z,71.08
2018-02-27T06:19:36.097Z,71.40
2018-02-27T06:22:04.495Z,70.81
2018-02-27T06:24:32.879Z,70.53
2018-02-27T06:27:02.066Z,70.58
2018-02-27T06:29:30.476Z,70.57
2018-02-27T06:31:59.675Z,70.60
2018-02-27T06:34:28.876Z,71.00
2018-02-27T06:36:58.023Z,71.16
2018-02-27T06:39:26.461Z,71.36
2018-02-27T06:41:55.636Z,71.67
2018-02-27T06:44:24.799Z,71.97
2018-02-27T06:46:53.227Z,72.22
2018-02-27T06:49:22.416Z,71.96
2018-02-27T06:51:50.839Z,71.38
2018-02-27T06:54:19.214Z,71.43
2018-02-27T06:56:48.490Z,71.33
2018-02-27T06:59:16.893Z,71.12
2018-02-27T07:01:45.297Z,70.72
2018-02-27T07:04:13.858Z,70.88
2018-02-27T07:06:42.399Z,70.59
2018-02-27T07:09:10.820Z,70.51
2018-02-27T07:11:40.023Z,70.31
2018-02-27T07:14:08.431Z,70.36
2018-02-27T07:16:36.845Z,70.01
2018-02-27T07:19:05.279Z,70.40
2018-02-27T07:21:33.652Z,70.19
2018-02-27T07:24:03.006Z,69.95
2018-02-27T07:26:31.500Z,69.53
2018-02-27T07:28:59.906Z,69.04
2018-02-27T07:31:29.095Z,69.25
2018-02-27T07:33:57.540Z,68.93
2018-02-27T07:36:26.175Z,69.01
2018-02-27T07:38:55.896Z,68.22
2018-02-27T07:41:25.067Z,67.87
2018-02-27T07:43:53.436Z,67.72
2018-02-27T07:46:21.868Z,67.15
2018-02-27T07:48:51.043Z,66.13
2018-02-27T07:51:19.448Z,64.81
2018-02-27T07:53:48.968Z,64.74
2018-02-27T07:56:17.356Z,64.59
2018-02-27T07:58:45.783Z,64.10
2018-02-27T08:01:14.195Z,64.03
2018-02-27T08:03:43.405Z,63.87
2018-02-27T08:06:12.558Z,63.82
2018-02-27T08:08:41.027Z,63.81
2018-02-27T08:11:09.423Z,62.91
2018-02-27T08:13:37.947Z,62.13
2018-02-27T08:16:06.358Z,61.99
2018-02-27T08:18:34.795Z,61.61
2018-02-27T08:21:04.109Z,60.95
2018-02-27T08:23:33.274Z,61.29
2018-02-27T08:26:01.670Z,60.95
2018-02-27T08:28:30.226Z,59.75
2018-02-27T08:30:58.647Z,59.25
2018-02-27T08:33:27.796Z,59.25
2018-02-27T08:35:56.192Z,58.91
2018-02-27T08:38:24.575Z,58.43
2018-02-27T08:40:53.086Z,57.42
2018-02-27T08:43:22.282Z,56.89
2018-02-27T08:45:50.744Z,56.32
2018-02-27T08:48:19.206Z,54.95
2018-02-27T08:50:47.585Z,54.18
2018-02-27T08:53:16.155Z,53.72
2018-02-27T08:55:44.715Z,54.14
2018-02-27T08:58:13.944Z,52.62
2018-02-27T09:00:42.328Z,51.49
2018-02-27T09:03:10.709Z,50.53
2018-02-27T09:05:39.106Z,49.69
2018-02-27T09:08:08.409Z,48.82
2018-02-27T09:10:36.783Z,48.44
2018-02-27T09:13:05.172Z,48.39
2018-02-27T09:15:33.923Z,46.45
2018-02-27T09:18:02.297Z,45.43
2018-02-27T09:20:31.501Z,44.60
2018-02-27T09:22:59.899Z,42.78
2018-02-27T09:25:28.282Z,40.84
2018-02-27T09:27:56.793Z,39.85
2018-02-27T09:30:25.198Z,41.09
2018-02-27T09:32:53.609Z,38.37
2018-02-27T09:35:21.968Z,38.26
2018-02-27T09:37:51.182Z,37.19
2018-02-27T09:40:20.342Z,36.39
2018-02-27T09:42:48.743Z,34.19
2018-02-27T09:45:17.902Z,34.89
2018-02-27T09:47:46.284Z,32.59
2018-02-27T09:50:14.771Z,30.92
2018-02-27T09:52:43.286Z,30.85
2018-02-27T09:55:12.627Z,32.47
2018-02-27T09:57:40.999Z,31.62
2018-02-27T10:00:09.444Z,31.88
2018-02-27T10:02:37.817Z,32.22
2018-02-27T10:05:06.404Z,30.97
2018-02-27T10:07:35.534Z,31.04
2018-02-27T10:10:03.904Z,30.73
2018-02-27T10:12:33.055Z,31.39
2018-02-27T10:15:01.658Z,28.91
2018-02-27T10:17:30.203Z,30.03
2018-02-27T10:19:58.687Z,30.45
2018-02-27T10:22:27.068Z,30.78
2018-02-27T10:24:55.552Z,29.54
2018-02-27T10:27:23.923Z,29.01
2018-02-27T10:29:52.509Z,29.57
2018-02-27T10:32:20.880Z,28.94
2018-02-27T10:34:49.272Z,29.30
2018-02-27T10:37:17.789Z,29.04
2018-02-27T10:39:46.163Z,28.64
2018-02-27T10:42:14.555Z,30.00
2018-02-27T10:44:43.280Z,28.82
2018-02-27T10:47:12.162Z,28.91
2018-02-27T10:49:40.649Z,29.46
2018-02-27T10:52:09.032Z,29.11
2018-02-27T10:54:37.415Z,29.72
2018-02-27T10:57:06.112Z,29.34
2018-02-27T10:59:34.548Z,28.69
2018-02-27T11:02:03.826Z,29.02
2018-02-27T11:04:32.255Z,29.82
2018-02-27T11:07:00.654Z,28.86
2018-02-27T11:09:29.033Z,28.31
2018-02-27T11:11:57.493Z,28.28
2018-02-27T11:14:26.663Z,29.34
2018-02-27T11:16:55.941Z,30.01
2018-02-27T11:19:24.328Z,29.58
2018-02-27T11:21:52.776Z,29.98
2018-02-27T11:24:31.103Z,29.82
2018-02-27T11:26:59.546Z,28.64
2018-02-27T11:29:28.728Z,28.74
2018-02-27T11:31:57.931Z,29.11
2018-02-27T11:34:27.704Z,29.85
2018-02-27T11:36:56.106Z,28.92
2018-02-27T11:39:25.308Z,29.44
2018-02-27T11:41:53.701Z,29.84
2018-02-27T11:44:23.156Z,28.42
2018-02-27T11:46:51.557Z,28.49
2018-02-27T11:49:19.970Z,28.65
2018-02-27T11:51:48.339Z,29.27
2018-02-27T11:54:16.718Z,29.01
2018-02-27T11:56:45.140Z,29.06
2018-02-27T11:59:13.508Z,29.32
2018-02-27T12:01:41.940Z,29.83
2018-02-27T12:04:10.325Z,29.96
2018-02-27T12:06:38.760Z,29.92
2018-02-27T12:09:07.141Z,29.74
2018-02-27T12:11:35.663Z,29.94
2018-02-27T12:14:04.328Z,30.17
2018-02-27T12:16:32.740Z,30.89
2018-02-27T12:19:01.139Z,30.88
2018-02-27T12:21:29.530Z,29.70
2018-02-27T12:23:58.715Z,30.31
2018-02-27T12:26:27.994Z,29.61
2018-02-27T12:28:56.421Z,29.90
2018-02-27T12:31:25.558Z,29.58
2018-02-27T12:33:54.003Z,29.96
2018-02-27T12:36:22.468Z,29.54
2018-02-27T12:38:51.635Z,30.11
2018-02-27T12:41:20.150Z,29.76
2018-02-27T12:43:48.523Z,30.04
2018-02-27T12:46:16.902Z,30.33
2018-02-27T12:48:45.286Z,29.47
2018-02-27T12:51:13.694Z,29.94
2018-02-27T12:53:42.900Z,29.79
2018-02-27T12:56:11.296Z,30.04
2018-02-27T12:58:39.720Z,29.95
2018-02-27T13:01:08.103Z,30.35
2018-02-27T13:03:36.536Z,30.31
2018-02-27T13:06:05.139Z,29.46
2018-02-27T13:08:46.381Z,30.06
2018-02-27T13:11:15.519Z,29.25
2018-02-27T13:13:45.197Z,29.81
2018-02-27T13:16:13.655Z,29.55
2018-02-27T13:18:43.361Z,30.73
2018-02-27T13:21:23.189Z,30.34
2018-02-27T13:23:52.059Z,30.71
2018-02-27T13:26:20.560Z,30.60
2018-02-27T13:28:48.957Z,30.54
2018-02-27T13:31:18.140Z,29.41
2018-02-27T13:33:50.350Z,29.39
2018-02-27T13:36:20.459Z,29.19
2018-02-27T13:38:48.951Z,29.54
2018-02-27T13:41:17.927Z,29.37
2018-02-27T13:43:47.976Z,29.23
2018-02-27T13:46:16.656Z,29.63
2018-02-27T13:48:46.143Z,30.22
2018-02-27T13:51:16.604Z,30.38
2018-02-27T13:53:45.364Z,30.55
2018-02-27T13:56:13.853Z,31.82
2018-02-27T13:58:42.501Z,29.95
2018-02-27T14:01:11.691Z,30.06
2018-02-27T14:03:40.986Z,30.36
2018-02-27T14:06:10.315Z,31.76
2018-02-27T14:08:41.220Z,31.81
2018-02-27T14:11:09.739Z,32.35
2018-02-27T14:13:38.467Z,31.29
2018-02-27T14:16:06.976Z,31.27
2018-02-27T14:18:35.357Z,31.31
2018-02-27T14:21:03.741Z,31.20
2018-02-27T14:23:32.384Z,30.93
2018-02-27T14:26:00.847Z,31.87
2018-02-27T14:28:29.431Z,32.58
2018-02-27T14:30:58.564Z,33.41
2018-02-27T14:33:27.004Z,32.58
2018-02-27T14:35:55.399Z,32.20
2018-02-27T14:38:23.828Z,32.20
2018-02-27T14:40:52.232Z,32.27
2018-02-27T14:43:20.663Z,32.63
2018-02-27T14:45:50.781Z,32.36
2018-02-27T14:48:19.156Z,32.69
2018-02-27T14:50:47.607Z,32.59
2018-02-27T14:53:16.041Z,32.54
2018-02-27T14:55:44.443Z,32.69
2018-02-27T14:58:12.945Z,32.89
2018-02-27T15:00:41.332Z,33.59
2018-02-27T15:03:09.739Z,33.54
2018-02-27T15:05:38.126Z,33.35
2018-02-27T15:08:06.527Z,33.86
2018-02-27T15:10:34.911Z,34.38
2018-02-27T15:13:04.143Z,34.79
2018-02-27T15:15:32.649Z,35.58
2018-02-27T15:18:01.177Z,35.94
2018-02-27T15:20:30.346Z,35.65
2018-02-27T15:22:58.736Z,35.81
2018-02-27T15:25:27.185Z,35.76
2018-02-27T15:27:55.616Z,35.82
2018-02-27T15:30:24.057Z,36.04
2018-02-27T15:32:52.517Z,35.61
2018-02-27T15:35:21.001Z,35.73
2018-02-27T15:37:49.379Z,35.87
2018-02-27T15:40:17.803Z,36.17
2018-02-27T15:42:46.409Z,36.25
2018-02-27T15:45:14.823Z,36.66
2018-02-27T15:47:43.203Z,36.91
2018-02-27T15:50:11.589Z,37.68
2018-02-27T15:52:40.295Z,38.14
2018-02-27T15:55:08.677Z,38.51
2018-02-27T15:57:37.102Z,37.78
2018-02-27T16:00:05.503Z,38.53
2018-02-27T16:02:34.679Z,38.00
2018-02-27T16:05:03.059Z,38.08
2018-02-27T16:07:31.580Z,38.76
2018-02-27T16:10:00.012Z,38.96
2018-02-27T16:12:28.419Z,39.28
2018-02-27T16:14:58.627Z,39.83
2018-02-27T16:17:27.139Z,39.99
2018-02-27T16:19:55.714Z,40.40
2018-02-27T16:22:24.880Z,40.25
2018-02-27T16:24:53.267Z,40.36
2018-02-27T16:27:21.871Z,40.37
2018-02-27T16:29:51.158Z,40.37
2018-02-27T16:32:20.806Z,41.20
2018-02-27T16:34:49.211Z,40.87
2018-02-27T16:37:17.758Z,40.81
2018-02-27T16:39:46.924Z,41.31
2018-02-27T16:42:16.209Z,41.33
2018-02-27T16:44:45.616Z,41.24
2018-02-27T16:47:14.392Z,41.02
2018-02-27T16:49:42.798Z,41.21
2018-02-27T16:52:11.369Z,41.61
2018-02-27T16:54:40.591Z,41.97
2018-02-27T16:57:10.091Z,41.85
2018-02-27T16:59:38.843Z,42.30
2018-02-27T17:02:07.307Z,42.79
2018-02-27T17:04:35.889Z,43.16
2018-02-27T17:07:04.845Z,43.34
2018-02-27T17:09:35.049Z,44.29
2018-02-27T17:12:04.901Z,44.69
2018-02-27T17:14:33.494Z,45.27
2018-02-27T17:17:02.731Z,45.63
2018-02-27T17:19:31.412Z,45.95
2018-02-27T17:21:59.949Z,46.00
2018-02-27T17:24:29.164Z,46.09
2018-02-27T17:26:58.342Z,46.10
2018-02-27T17:29:27.496Z,46.25
2018-02-27T17:31:56.172Z,46.20
2018-02-27T17:34:24.752Z,46.26
2018-02-27T17:36:53.203Z,46.52
2018-02-27T17:39:22.391Z,45.96
2018-02-27T17:41:51.545Z,46.11
2018-02-27T17:44:20.332Z,46.33
2018-02-27T17:46:49.195Z,46.74
2018-02-27T17:49:17.720Z,46.74
2018-02-27T17:51:46.945Z,46.63
2018-02-27T17:54:15.511Z,46.48
2018-02-27T17:56:44.739Z,46.88
2018-02-27T17:59:14.003Z,46.84
2018-02-27T18:01:42.543Z,46.74
2018-02-27T18:04:11.003Z,46.77
2018-02-27T18:06:40.376Z,47.41
2018-02-27T18:09:08.894Z,47.00
2018-02-27T18:11:38.082Z,47.13
2018-02-27T18:14:06.500Z,47.87
2018-02-27T18:16:35.163Z,47.83
2018-02-27T18:19:04.491Z,47.58
2018-02-27T18:21:33.218Z,47.81
2018-02-27T18:24:02.066Z,47.81
2018-02-27T18:26:30.584Z,47.75
2018-02-27T18:28:59.026Z,48.31
2018-02-27T18:31:27.426Z,48.91
2018-02-27T18:33:56.604Z,48.97
2018-02-27T18:36:25.024Z,48.65
2018-02-27T18:38:53.415Z,49.03
2018-02-27T18:41:21.846Z,49.16
2018-02-27T18:43:50.486Z,48.66
2018-02-27T18:46:18.731Z,48.82
2018-02-27T18:48:47.995Z,49.83
2018-02-27T18:51:16.387Z,49.49
2018-02-27T18:53:44.749Z,49.35
2018-02-27T18:56:13.204Z,49.60
2018-02-27T18:58:41.645Z,50.24
2018-02-27T19:01:10.939Z,50.08
2018-02-27T19:03:39.378Z,49.99
2018-02-27T19:06:07.941Z,50.11
2018-02-27T19:08:36.429Z,49.94
2018-02-27T19:11:04.986Z,50.12
2018-02-27T19:13:33.458Z,50.00
2018-02-27T19:16:02.782Z,50.09
2018-02-27T19:18:31.188Z,50.54
2018-02-27T19:20:59.621Z,50.96
2018-02-27T19:23:28.202Z,51.03
2018-02-27T19:25:59.929Z,51.45
2018-02-27T19:28:31.555Z,50.96
2018-02-27T19:30:59.980Z,51.08
2018-02-27T19:33:28.456Z,51.33
2018-02-27T19:35:57.005Z,51.83
2018-02-27T19:38:27.309Z,52.04
2018-02-27T19:40:56.670Z,51.67
2018-02-27T19:43:25.471Z,52.06
2018-02-27T19:45:54.036Z,52.80
2018-02-27T19:48:22.831Z,53.20
2018-02-27T19:50:51.483Z,53.92
2018-02-27T19:53:20.142Z,53.87
2018-02-27T19:55:49.393Z,53.98
2018-02-27T19:58:17.843Z,53.62
2018-02-27T20:00:47.775Z,53.48
2018-02-27T20:03:17.119Z,52.96
2018-02-27T20:05:46.251Z,53.64
2018-02-27T20:08:14.748Z,53.51
2018-02-27T20:10:43.184Z,53.24
2018-02-27T20:13:11.603Z,53.67
2018-02-27T20:15:41.325Z,53.98
2018-02-27T20:18:11.558Z,53.98
2018-02-27T20:20:40.015Z,53.86
2018-02-27T20:23:13.996Z,53.88
2018-02-27T20:25:42.428Z,55.00
2018-02-27T20:28:16.231Z,55.07
2018-02-27T20:30:44.655Z,55.22
2018-02-27T20:33:13.351Z,55.20
2018-02-27T20:35:42.800Z,55.19
2018-02-27T20:38:12.164Z,55.28
2018-02-27T20:40:40.706Z,55.15
2018-02-27T20:43:09.108Z,55.43
2018-02-27T20:45:37.559Z,55.45
2018-02-27T20:48:06.168Z,55.63
2018-02-27T20:50:35.146Z,55.75
2018-02-27T20:53:03.596Z,55.83
2018-02-27T20:55:32.824Z,55.89
2018-02-27T20:58:01.345Z,55.92
2018-02-27T21:00:29.744Z,56.12
2018-02-27T21:02:58.416Z,56.35
2018-02-27T21:05:26.801Z,56.74
2018-02-27T21:07:55.966Z,56.58
2018-02-27T21:10:24.646Z,56.62
2018-02-27T21:12:53.075Z,56.63
2018-02-27T21:15:21.777Z,57.20
2018-02-27T21:17:50.951Z,57.08
2018-02-27T21:20:20.195Z,57.19
2018-02-27T21:22:49.010Z,57.19
2018-02-27T21:25:17.451Z,57.44
2018-02-27T21:27:46.680Z,57.40
2018-02-27T21:30:15.217Z,57.61
2018-02-27T21:32:43.703Z,57.39
2018-02-27T21:35:12.894Z,57.34
2018-02-27T21:37:42.065Z,57.07
2018-02-27T21:40:10.540Z,57.62
2018-02-27T21:42:38.932Z,57.90
2018-02-27T21:45:07.373Z,58.38
2018-02-27T21:47:35.773Z,59.27
2018-02-27T21:50:04.317Z,59.36
2018-02-27T21:52:33.554Z,59.52
2018-02-27T21:55:02.038Z,59.08
2018-02-27T21:57:30.474Z,58.72
2018-02-27T21:59:59.798Z,58.84
2018-02-27T22:02:28.522Z,59.41
2018-02-27T22:04:57.121Z,59.14
2018-02-27T22:07:25.717Z,59.65
2018-02-27T22:09:54.297Z,59.81
2018-02-27T22:12:23.621Z,59.60
2018-02-27T22:14:52.022Z,59.76
2018-02-27T22:17:20.435Z,60.33
2018-02-27T22:19:48.832Z,61.00
2018-02-27T22:22:17.208Z,61.39
2018-02-27T22:24:45.631Z,61.32
2018-02-27T22:27:14.776Z,61.12
2018-02-27T22:29:43.267Z,60.95
2018-02-27T22:32:11.670Z,61.39
2018-02-27T22:34:40.130Z,61.78
2018-02-27T22:37:08.514Z,61.90
2018-02-27T22:39:36.996Z,62.75
2018-02-27T22:42:05.372Z,62.59
2018-02-27T22:44:33.892Z,61.68
2018-02-27T22:47:02.552Z,61.24
2018-02-27T22:49:30.933Z,61.07
2018-02-27T22:51:59.324Z,60.74
2018-02-27T22:54:27.930Z,60.42
2018-02-27T22:56:57.106Z,60.62
2018-02-27T22:59:25.656Z,61.46
2018-02-27T23:01:54.054Z,61.23
2018-02-27T23:04:22.439Z,61.05
2018-02-27T23:06:50.824Z,61.75
2018-02-27T23:09:19.231Z,61.30
2018-02-27T23:11:48.368Z,61.27
2018-02-27T23:14:16.900Z,61.42
2018-02-27T23:16:45.272Z,61.36
2018-02-27T23:19:13.674Z,61.01
2018-02-27T23:21:42.049Z,61.34
2018-02-27T23:24:12.909Z,61.46
2018-02-27T23:26:46.735Z,61.34
2018-02-27T23:29:18.099Z,61.59
2018-02-27T23:31:52.622Z,61.45
2018-02-27T23:34:29.296Z,61.52
2018-02-27T23:36:57.816Z,61.34
2018-02-27T23:39:27.239Z,61.75
2018-02-27T23:41:55.672Z,62.20
2018-02-27T23:44:24.084Z,62.30
2018-02-27T23:46:52.476Z,62.37
2018-02-27T23:49:20.846Z,62.14
2018-02-27T23:51:49.259Z,62.36
2018-02-27T23:54:17.641Z,62.84
2018-02-27T23:56:46.050Z,63.00
2018-02-27T23:59:14.411Z,62.94
